MKJSMWCB

Guest
Details From MKJS - Sangster Intl
To MWCB - Cayman Brac Gerrard Smith Intl
Flight Number -
Tags generated
Created
Modified
Stats Distance 132 nm / 245 km
Max Altitude 14,200 ft / 4,328 m
Waypoints 5
Social Downloads 2
Likes 0
Share VATSIM

Download

Looking for another format? Having issues loading an existing format? Contact us
Advertisement - Login to hide

Notes

Basic altitude profile: - Ascent Rate: 1500ft/min - Ascent Speed: 250kts - Cruise Altitude: 16500ft - Cruise Speed: 340kts - Descent Rate: 1500ft/min - Descent Speed: 300kts Options: - Use NATs: no - Use PACOTS: no - Use low airways: yes - Use high airways: yes

Route

MKJS NUBOX A511 BETAR MWCB

ID Type Via Altitude Latitude Longitude Leg Dist Tot Dist Heading (true) Name
O MKJS APT - 0 ft / 0 m 18.50355˚ -77.91370˚ - 0 nm - Sangster Intl
NUBOX FIX - 14,200 ft / 4,328 m 18.86278˚ -78.50583˚ 40 nm 40 nm 303° / 303° -
KODAK FIX A511 (AWY-LO) 12,600 ft / 3,840 m 19.16500˚ -78.99667˚ 33 nm 73 nm 303° / 303° -
BETAR FIX A511 (AWY-LO) 5,300 ft / 1,615 m 19.47336˚ -79.50006˚ 34 nm 107 nm 303° / 303° -
O MWCB APT - 0 ft / 0 m 19.68698˚ -79.88279˚ 25 nm 132 nm 301° / 301° Cayman Brac Gerrard Smith Intl

Altitude Profile

Advertisement - Login to hide

MKJS

Details ICAO MKJS (MBJ)
Name Sangster Intl
Region Jamaica
Timezone America/Jamaica (UTC-5.0)
Stats Elevation 6 ft / 2 m (AMSL)
Location 18.503549° -77.913698°
Runways 1
Magnetic Variation 6.956° W

METAR

MKJS 160000Z 14003KT 9999 SCT022 27/24 Q1015

Decode

TAF

TAF MKJS 152315Z 1600/1624 08015KT 9999 FEW024 BECMG 1603/1605 11005KT BECMG 1614/1616 07018KT FEW022

Decode

Departure Runways

ID Width Length Bearing (true) Bearing (mag) Surface Threshold Offset Overrun Length
07 161 ft / 49 m 8,495 ft / 2,589 m 65.37° 72.33° Asphalt 220 ft / 67 m 312 ft / 95 m
25 161 ft / 49 m 8,495 ft / 2,589 m 245.37° 252.33° Asphalt 577 ft / 176 m 200 ft / 61 m

MWCB

Details ICAO MWCB (CYB)
Name Cayman Brac Gerrard Smith Intl
Region Cayman Islands
Timezone Unknown (UTC+0.0)
Stats Elevation 7 ft / 2 m (AMSL)
Location 19.686981° -79.882789°
Runways 1
Magnetic Variation 5.951° W

METAR

MWCB 160000Z 10007KT 9999 SCT016 27/25 Q1016

Decode

TAF

TAF MWCB 160000Z 1518/1618 CNL

Decode

Destination Runways

ID Width Length Bearing (true) Bearing (mag) Surface Threshold Offset Overrun Length
09 148 ft / 45 m 5,965 ft / 1,818 m 84.73° 90.68° Asphalt 0 ft / 0 m 36 ft / 11 m
27 148 ft / 45 m 5,965 ft / 1,818 m 264.74° 270.69° Asphalt 0 ft / 0 m 26 ft / 8 m

Popular Alternatives